sensor_id;sensor_type;location;lat;lon;timestamp;pressure;altitude;pressure_sealevel;temperature;humidity
12636;BME280;6383;50.830;7.210;2023-01-30T00:01:00;101304.41;;;3.97;75.86
12636;BME280;6383;50.830;7.210;2023-01-30T00:03:29;101280.25;;;4.02;76.11
12636;BME280;6383;50.830;7.210;2023-01-30T00:05:59;101264.69;;;4.04;76.12
12636;BME280;6383;50.830;7.210;2023-01-30T00:08:28;101278.50;;;4.07;76.82
12636;BME280;6383;50.830;7.210;2023-01-30T00:11:02;101273.44;;;4.11;76.56
12636;BME280;6383;50.830;7.210;2023-01-30T00:13:33;101275.66;;;4.14;76.63
12636;BME280;6383;50.830;7.210;2023-01-30T00:16:03;101267.91;;;4.17;76.84
12636;BME280;6383;50.830;7.210;2023-01-30T00:18:32;101272.00;;;4.20;76.83
12636;BME280;6383;50.830;7.210;2023-01-30T00:21:03;101262.38;;;4.24;76.48
12636;BME280;6383;50.830;7.210;2023-01-30T00:23:33;101237.66;;;4.27;77.24
12636;BME280;6383;50.830;7.210;2023-01-30T00:26:03;101231.78;;;4.30;76.85
12636;BME280;6383;50.830;7.210;2023-01-30T00:28:34;101230.22;;;4.34;76.71
12636;BME280;6383;50.830;7.210;2023-01-30T00:31:03;101223.53;;;4.37;77.30
12636;BME280;6383;50.830;7.210;2023-01-30T00:33:32;101223.88;;;4.40;77.14
12636;BME280;6383;50.830;7.210;2023-01-30T00:36:04;101228.78;;;4.43;77.16
12636;BME280;6383;50.830;7.210;2023-01-30T00:38:33;101219.94;;;4.48;76.78
12636;BME280;6383;50.830;7.210;2023-01-30T00:41:03;101215.94;;;4.50;77.05
12636;BME280;6383;50.830;7.210;2023-01-30T00:43:33;101217.09;;;4.54;77.53
12636;BME280;6383;50.830;7.210;2023-01-30T00:46:24;101214.16;;;4.56;77.55
12636;BME280;6383;50.830;7.210;2023-01-30T00:49:12;101222.00;;;4.57;77.17
12636;BME280;6383;50.830;7.210;2023-01-30T00:51:41;101219.91;;;4.59;77.67
12636;BME280;6383;50.830;7.210;2023-01-30T00:54:10;101209.66;;;4.61;77.27
12636;BME280;6383;50.830;7.210;2023-01-30T00:56:39;101200.50;;;4.63;77.61
12636;BME280;6383;50.830;7.210;2023-01-30T00:59:10;101195.69;;;4.65;77.36
12636;BME280;6383;50.830;7.210;2023-01-30T01:01:39;101196.50;;;4.65;77.13
12636;BME280;6383;50.830;7.210;2023-01-30T01:04:08;101190.06;;;4.66;77.10
12636;BME280;6383;50.830;7.210;2023-01-30T01:06:38;101196.50;;;4.65;77.59
12636;BME280;6383;50.830;7.210;2023-01-30T01:09:06;101189.25;;;4.66;76.50
12636;BME280;6383;50.830;7.210;2023-01-30T01:11:34;101188.19;;;4.67;77.59
12636;BME280;6383;50.830;7.210;2023-01-30T01:14:04;101174.47;;;4.68;77.44
12636;BME280;6383;50.830;7.210;2023-01-30T01:16:35;101162.03;;;4.67;77.23
12636;BME280;6383;50.830;7.210;2023-01-30T01:19:04;101160.97;;;4.68;77.27
12636;BME280;6383;50.830;7.210;2023-01-30T01:21:33;101159.09;;;4.69;76.52
12636;BME280;6383;50.830;7.210;2023-01-30T01:24:03;101160.97;;;4.68;77.08
12636;BME280;6383;50.830;7.210;2023-01-30T01:26:32;101182.53;;;4.68;77.54
12636;BME280;6383;50.830;7.210;2023-01-30T01:29:02;101187.69;;;4.70;77.37
12636;BME280;6383;50.830;7.210;2023-01-30T01:31:31;101183.38;;;4.69;76.92
12636;BME280;6383;50.830;7.210;2023-01-30T01:34:01;101177.97;;;4.69;77.12
12636;BME280;6383;50.830;7.210;2023-01-30T01:36:30;101160.72;;;4.70;77.30
12636;BME280;6383;50.830;7.210;2023-01-30T01:39:00;101164.25;;;4.70;77.45
12636;BME280;6383;50.830;7.210;2023-01-30T01:41:30;101170.22;;;4.72;77.84
12636;BME280;6383;50.830;7.210;2023-01-30T01:44:00;101167.53;;;4.72;77.30
12636;BME280;6383;50.830;7.210;2023-01-30T01:46:32;101165.63;;;4.73;77.68
12636;BME280;6383;50.830;7.210;2023-01-30T01:49:05;101165.63;;;4.73;77.19
12636;BME280;6383;50.830;7.210;2023-01-30T01:51:37;101155.44;;;4.75;77.61
12636;BME280;6383;50.830;7.210;2023-01-30T01:54:11;101151.09;;;4.74;77.26
12636;BME280;6383;50.830;7.210;2023-01-30T01:56:43;101148.13;;;4.75;77.37
12636;BME280;6383;50.830;7.210;2023-01-30T01:59:19;101148.13;;;4.75;77.57
12636;BME280;6383;50.830;7.210;2023-01-30T02:01:52;101143.56;;;4.76;77.39
12636;BME280;6383;50.830;7.210;2023-01-30T02:04:25;101145.19;;;4.77;78.05
12636;BME280;6383;50.830;7.210;2023-01-30T02:07:16;101139.78;;;4.77;77.56
12636;BME280;6383;50.830;7.210;2023-01-30T02:09:46;101141.44;;;4.78;77.34
12636;BME280;6383;50.830;7.210;2023-01-30T02:12:15;101138.72;;;4.78;77.39
12636;BME280;6383;50.830;7.210;2023-01-30T02:14:46;101128.53;;;4.80;77.88
12636;BME280;6383;50.830;7.210;2023-01-30T02:17:16;101123.94;;;4.80;77.51
12636;BME280;6383;50.830;7.210;2023-01-30T02:19:50;101132.03;;;4.80;78.29
12636;BME280;6383;50.830;7.210;2023-01-30T02:22:42;101123.69;;;4.82;77.66
12636;BME280;6383;50.830;7.210;2023-01-30T02:25:24;101112.91;;;4.82;77.77
12636;BME280;6383;50.830;7.210;2023-01-30T02:31:09;101100.72;;;4.79;77.98
12636;BME280;6383;50.830;7.210;2023-01-30T02:33:49;101086.44;;;4.79;77.82
12636;BME280;6383;50.830;7.210;2023-01-30T02:36:28;101088.06;;;4.80;77.91
12636;BME280;6383;50.830;7.210;2023-01-30T02:39:07;101074.59;;;4.80;78.56
12636;BME280;6383;50.830;7.210;2023-01-30T02:41:43;101069.44;;;4.78;78.86
12636;BME280;6383;50.830;7.210;2023-01-30T02:44:23;101065.69;;;4.79;78.69
12636;BME280;6383;50.830;7.210;2023-01-30T02:47:01;101064.38;;;4.82;79.05
12636;BME280;6383;50.830;7.210;2023-01-30T02:49:35;101056.28;;;4.82;78.42
12636;BME280;6383;50.830;7.210;2023-01-30T02:52:05;101056.84;;;4.84;78.73
12636;BME280;6383;50.830;7.210;2023-01-30T02:54:34;101041.25;;;4.86;79.29
12636;BME280;6383;50.830;7.210;2023-01-30T02:57:16;101049.09;;;4.87;79.68
12636;BME280;6383;50.830;7.210;2023-01-30T02:59:48;101052.06;;;4.91;79.76
12636;BME280;6383;50.830;7.210;2023-01-30T03:02:36;101051.81;;;4.92;79.47
12636;BME280;6383;50.830;7.210;2023-01-30T03:05:21;101047.25;;;4.93;79.56
12636;BME280;6383;50.830;7.210;2023-01-30T03:07:58;101044.25;;;4.89;78.93
12636;BME280;6383;50.830;7.210;2023-01-30T03:10:37;101046.69;;;4.91;80.32
12636;BME280;6383;50.830;7.210;2023-01-30T03:13:15;101042.91;;;4.92;79.94
12636;BME280;6383;50.830;7.210;2023-01-30T03:15:49;101041.28;;;4.91;80.59
12636;BME280;6383;50.830;7.210;2023-01-30T03:18:20;101034.81;;;4.92;80.78
12636;BME280;6383;50.830;7.210;2023-01-30T03:20:50;101032.13;;;4.92;80.95
12636;BME280;6383;50.830;7.210;2023-01-30T03:23:19;101029.44;;;4.92;81.52
12636;BME280;6383;50.830;7.210;2023-01-30T03:25:48;101023.78;;;4.93;81.12
12636;BME280;6383;50.830;7.210;2023-01-30T03:28:18;101016.75;;;4.92;81.24
12636;BME280;6383;50.830;7.210;2023-01-30T03:30:48;101010.56;;;4.92;81.07
12636;BME280;6383;50.830;7.210;2023-01-30T03:33:17;101015.69;;;4.93;81.23
12636;BME280;6383;50.830;7.210;2023-01-30T03:35:48;101022.72;;;4.94;82.32
12636;BME280;6383;50.830;7.210;2023-01-30T03:38:19;101022.47;;;4.96;81.95
12636;BME280;6383;50.830;7.210;2023-01-30T03:40:48;101013.31;;;4.97;82.61
12636;BME280;6383;50.830;7.210;2023-01-30T03:43:17;101007.69;;;4.99;82.55
12636;BME280;6383;50.830;7.210;2023-01-30T03:45:46;101002.03;;;5.00;82.61
12636;BME280;6383;50.830;7.210;2023-01-30T03:48:15;100993.13;;;5.00;82.77
12636;BME280;6383;50.830;7.210;2023-01-30T03:50:44;100982.09;;;5.01;82.18
12636;BME280;6383;50.830;7.210;2023-01-30T03:53:15;100978.31;;;5.02;82.93
12636;BME280;6383;50.830;7.210;2023-01-30T03:55:44;100985.34;;;5.03;83.18
12636;BME280;6383;50.830;7.210;2023-01-30T03:58:13;100969.97;;;5.04;83.10
12636;BME280;6383;50.830;7.210;2023-01-30T04:00:42;100964.31;;;5.05;83.17
12636;BME280;6383;50.830;7.210;2023-01-30T04:03:11;100961.09;;;5.08;82.61
12636;BME280;6383;50.830;7.210;2023-01-30T04:05:41;100957.34;;;5.09;83.09
12636;BME280;6383;50.830;7.210;2023-01-30T04:08:10;100957.09;;;5.11;83.77
12636;BME280;6383;50.830;7.210;2023-01-30T04:10:40;100953.88;;;5.14;83.76
12636;BME280;6383;50.830;7.210;2023-01-30T04:13:09;100947.44;;;5.15;83.41
12636;BME280;6383;50.830;7.210;2023-01-30T04:15:37;100938.00;;;5.17;84.11
12636;BME280;6383;50.830;7.210;2023-01-30T04:18:05;100926.69;;;5.20;84.08
12636;BME280;6383;50.830;7.210;2023-01-30T04:20:34;100917.84;;;5.25;84.09
12636;BME280;6383;50.830;7.210;2023-01-30T04:23:03;100917.06;;;5.29;83.93
12636;BME280;6383;50.830;7.210;2023-01-30T04:25:32;100917.09;;;5.35;84.06
12636;BME280;6383;50.830;7.210;2023-01-30T04:28:02;100916.34;;;5.39;83.61
12636;BME280;6383;50.830;7.210;2023-01-30T04:30:31;100914.50;;;5.45;83.73
12636;BME280;6383;50.830;7.210;2023-01-30T04:33:00;100907.53;;;5.49;84.35
12636;BME280;6383;50.830;7.210;2023-01-30T04:35:29;100913.00;;;5.59;84.62
12636;BME280;6383;50.830;7.210;2023-01-30T04:37:58;100911.69;;;5.66;83.88
12636;BME280;6383;50.830;7.210;2023-01-30T04:40:28;100899.59;;;5.74;83.98
12636;BME280;6383;50.830;7.210;2023-01-30T04:42:57;100909.34;;;5.80;83.45
12636;BME280;6383;50.830;7.210;2023-01-30T04:45:27;100905.63;;;5.86;83.84
12636;BME280;6383;50.830;7.210;2023-01-30T04:47:56;100903.81;;;5.92;83.53
12636;BME280;6383;50.830;7.210;2023-01-30T04:50:25;100910.03;;;5.97;83.52
12636;BME280;6383;50.830;7.210;2023-01-30T04:52:54;100916.53;;;6.01;84.08
12636;BME280;6383;50.830;7.210;2023-01-30T04:55:23;100911.19;;;6.07;83.53
12636;BME280;6383;50.830;7.210;2023-01-30T04:57:52;100907.66;;;6.11;84.24
12636;BME280;6383;50.830;7.210;2023-01-30T05:00:22;100910.66;;;6.15;84.32
12636;BME280;6383;50.830;7.210;2023-01-30T05:02:52;100903.94;;;6.17;83.97
12636;BME280;6383;50.830;7.210;2023-01-30T05:05:23;100898.81;;;6.21;83.64
12636;BME280;6383;50.830;7.210;2023-01-30T05:07:53;100903.69;;;6.24;83.49
12636;BME280;6383;50.830;7.210;2023-01-30T05:10:22;100888.00;;;6.26;82.70
12636;BME280;6383;50.830;7.210;2023-01-30T05:12:51;100889.38;;;6.28;83.53
12636;BME280;6383;50.830;7.210;2023-01-30T05:15:20;100876.16;;;6.32;82.67
12636;BME280;6383;50.830;7.210;2023-01-30T05:17:49;100877.78;;;6.33;83.63
12636;BME280;6383;50.830;7.210;2023-01-30T05:20:20;100871.31;;;6.34;83.97
12636;BME280;6383;50.830;7.210;2023-01-30T05:22:55;100874.56;;;6.36;83.79
12636;BME280;6383;50.830;7.210;2023-01-30T05:25:38;100870.78;;;6.37;83.59
12636;BME280;6383;50.830;7.210;2023-01-30T05:28:05;100866.19;;;6.38;84.07
12636;BME280;6383;50.830;7.210;2023-01-30T05:30:41;100877.53;;;6.40;83.96
12636;BME280;6383;50.830;7.210;2023-01-30T05:33:10;100881.59;;;6.42;83.11
12636;BME280;6383;50.830;7.210;2023-01-30T05:35:45;100873.50;;;6.42;83.21
12636;BME280;6383;50.830;7.210;2023-01-30T05:38:14;100870.53;;;6.44;83.66
12636;BME280;6383;50.830;7.210;2023-01-30T05:40:43;100860.00;;;6.47;84.42
12636;BME280;6383;50.830;7.210;2023-01-30T05:43:12;100860.00;;;6.47;84.41
12636;BME280;6383;50.830;7.210;2023-01-30T05:45:41;100872.44;;;6.48;84.67
12636;BME280;6383;50.830;7.210;2023-01-30T05:48:10;100864.88;;;6.50;84.92
12636;BME280;6383;50.830;7.210;2023-01-30T05:50:41;100871.66;;;6.53;84.53
12636;BME280;6383;50.830;7.210;2023-01-30T05:53:10;100864.31;;;6.53;85.83
12636;BME280;6383;50.830;7.210;2023-01-30T05:55:39;100872.97;;;6.55;86.38
12636;BME280;6383;50.830;7.210;2023-01-30T05:58:10;100874.63;;;6.56;86.26
12636;BME280;6383;50.830;7.210;2023-01-30T06:00:39;100868.94;;;6.58;85.83
12636;BME280;6383;50.830;7.210;2023-01-30T06:03:07;100867.88;;;6.59;86.92
12636;BME280;6383;50.830;7.210;2023-01-30T06:05:36;100874.09;;;6.59;87.53
12636;BME280;6383;50.830;7.210;2023-01-30T06:08:06;100870.31;;;6.60;87.66
12636;BME280;6383;50.830;7.210;2023-01-30T06:10:35;100867.59;;;6.60;87.12
12636;BME280;6383;50.830;7.210;2023-01-30T06:13:04;100864.91;;;6.60;87.87
12636;BME280;6383;50.830;7.210;2023-01-30T06:15:33;100872.19;;;6.60;88.19
12636;BME280;6383;50.830;7.210;2023-01-30T06:18:02;100873.00;;;6.60;87.99
12636;BME280;6383;50.830;7.210;2023-01-30T06:20:31;100870.31;;;6.60;87.51
12636;BME280;6383;50.830;7.210;2023-01-30T06:23:00;100864.91;;;6.60;87.61
12636;BME280;6383;50.830;7.210;2023-01-30T06:25:31;100868.16;;;6.62;87.64
12636;BME280;6383;50.830;7.210;2023-01-30T06:28:00;100874.63;;;6.61;87.56
12636;BME280;6383;50.830;7.210;2023-01-30T06:30:29;100884.38;;;6.62;87.78
12636;BME280;6383;50.830;7.210;2023-01-30T06:32:58;100878.97;;;6.62;87.77
12636;BME280;6383;50.830;7.210;2023-01-30T06:35:27;100887.09;;;6.62;88.86
12636;BME280;6383;50.830;7.210;2023-01-30T06:37:56;100897.91;;;6.62;89.02
12636;BME280;6383;50.830;7.210;2023-01-30T06:40:25;100896.81;;;6.63;88.95
12636;BME280;6383;50.830;7.210;2023-01-30T06:42:56;100900.34;;;6.64;88.97
12636;BME280;6383;50.830;7.210;2023-01-30T06:45:25;100899.25;;;6.65;88.56
12636;BME280;6383;50.830;7.210;2023-01-30T06:47:54;100890.06;;;6.66;89.38
12636;BME280;6383;50.830;7.210;2023-01-30T06:50:26;100893.31;;;6.68;88.72
12636;BME280;6383;50.830;7.210;2023-01-30T06:52:56;100884.13;;;6.69;88.68
12636;BME280;6383;50.830;7.210;2023-01-30T06:55:26;100889.00;;;6.72;88.78
12636;BME280;6383;50.830;7.210;2023-01-30T06:58:05;100882.50;;;6.73;89.30
12636;BME280;6383;50.830;7.210;2023-01-30T07:00:35;100889.53;;;6.74;89.06
12636;BME280;6383;50.830;7.210;2023-01-30T07:03:09;100885.50;;;6.77;88.93
12636;BME280;6383;50.830;7.210;2023-01-30T07:05:38;100900.38;;;6.79;89.23
12636;BME280;6383;50.830;7.210;2023-01-30T07:08:06;100906.34;;;6.81;89.04
12636;BME280;6383;50.830;7.210;2023-01-30T07:10:35;100904.44;;;6.82;89.13
12636;BME280;6383;50.830;7.210;2023-01-30T07:13:05;100912.81;;;6.85;88.21
12636;BME280;6383;50.830;7.210;2023-01-30T07:15:35;100910.66;;;6.87;88.71
12636;BME280;6383;50.830;7.210;2023-01-30T07:18:04;100919.59;;;6.88;89.00
12636;BME280;6383;50.830;7.210;2023-01-30T07:20:33;100919.34;;;6.89;88.34
12636;BME280;6383;50.830;7.210;2023-01-30T07:23:02;100908.25;;;6.91;88.17
12636;BME280;6383;50.830;7.210;2023-01-30T07:25:31;100923.41;;;6.92;89.05
12636;BME280;6383;50.830;7.210;2023-01-30T07:28:01;100924.78;;;6.94;88.83
12636;BME280;6383;50.830;7.210;2023-01-30T07:30:33;100923.69;;;6.95;89.13
12636;BME280;6383;50.830;7.210;2023-01-30T07:33:04;100932.63;;;6.96;88.66
12636;BME280;6383;50.830;7.210;2023-01-30T07:35:35;100918.84;;;6.97;88.33
12636;BME280;6383;50.830;7.210;2023-01-30T07:38:04;100913.41;;;6.97;88.58
12636;BME280;6383;50.830;7.210;2023-01-30T07:40:33;100909.91;;;6.97;88.69
12636;BME280;6383;50.830;7.210;2023-01-30T07:43:04;100926.13;;;6.97;88.40
12636;BME280;6383;50.830;7.210;2023-01-30T07:45:37;100929.91;;;6.96;89.22
12636;BME280;6383;50.830;7.210;2023-01-30T07:48:06;100923.16;;;6.93;88.83
12636;BME280;6383;50.830;7.210;2023-01-30T07:50:36;100927.75;;;6.93;88.85
12636;BME280;6383;50.830;7.210;2023-01-30T07:53:06;100918.00;;;6.92;89.55
12636;BME280;6383;50.830;7.210;2023-01-30T07:55:35;100920.69;;;6.92;89.84
12636;BME280;6383;50.830;7.210;2023-01-30T07:58:05;100930.16;;;6.89;89.98
12636;BME280;6383;50.830;7.210;2023-01-30T08:00:35;100932.88;;;6.89;90.50
12636;BME280;6383;50.830;7.210;2023-01-30T08:03:04;100942.06;;;6.88;89.73
12636;BME280;6383;50.830;7.210;2023-01-30T08:05:33;100940.44;;;6.87;90.53
12636;BME280;6383;50.830;7.210;2023-01-30T08:08:02;100936.34;;;6.85;90.52
12636;BME280;6383;50.830;7.210;2023-01-30T08:10:31;100941.78;;;6.85;90.21
12636;BME280;6383;50.830;7.210;2023-01-30T08:13:00;100935.53;;;6.84;90.54
12636;BME280;6383;50.830;7.210;2023-01-30T08:15:29;100932.84;;;6.84;90.70
12636;BME280;6383;50.830;7.210;2023-01-30T08:18:01;100932.03;;;6.84;90.61
12636;BME280;6383;50.830;7.210;2023-01-30T08:20:30;100929.31;;;6.84;91.32
12636;BME280;6383;50.830;7.210;2023-01-30T08:22:59;100933.09;;;6.83;90.74
12636;BME280;6383;50.830;7.210;2023-01-30T08:25:29;100937.44;;;6.84;91.81
12636;BME280;6383;50.830;7.210;2023-01-30T08:27:58;100933.66;;;6.85;92.06
12636;BME280;6383;50.830;7.210;2023-01-30T08:30:28;100927.16;;;6.86;91.77
12636;BME280;6383;50.830;7.210;2023-01-30T08:32:58;100938.81;;;6.86;91.71
12636;BME280;6383;50.830;7.210;2023-01-30T08:35:28;100929.88;;;6.86;92.16
12636;BME280;6383;50.830;7.210;2023-01-30T08:37:57;100919.06;;;6.86;92.14
12636;BME280;6383;50.830;7.210;2023-01-30T08:40:27;100928.78;;;6.87;91.56
12636;BME280;6383;50.830;7.210;2023-01-30T08:42:56;100926.91;;;6.87;92.58
12636;BME280;6383;50.830;7.210;2023-01-30T08:45:25;100941.25;;;6.88;92.07
12636;BME280;6383;50.830;7.210;2023-01-30T08:47:57;100952.06;;;6.88;92.33
12636;BME280;6383;50.830;7.210;2023-01-30T08:50:28;100951.00;;;6.89;92.82
12636;BME280;6383;50.830;7.210;2023-01-30T08:53:02;100961.56;;;6.90;92.31
12636;BME280;6383;50.830;7.210;2023-01-30T08:55:31;100951.56;;;6.96;92.95
12636;BME280;6383;50.830;7.210;2023-01-30T08:58:00;100964.28;;;6.95;92.90
12636;BME280;6383;50.830;7.210;2023-01-30T09:00:29;100956.16;;;6.95;93.44
12636;BME280;6383;50.830;7.210;2023-01-30T09:02:59;100958.88;;;6.95;92.87
12636;BME280;6383;50.830;7.210;2023-01-30T09:05:30;100943.72;;;6.99;93.50
12636;BME280;6383;50.830;7.210;2023-01-30T09:07:59;100951.56;;;7.01;93.16
12636;BME280;6383;50.830;7.210;2023-01-30T09:10:28;100952.38;;;7.01;93.02
12636;BME280;6383;50.830;7.210;2023-01-30T09:12:57;100951.03;;;7.04;93.26
12636;BME280;6383;50.830;7.210;2023-01-30T09:15:26;100961.06;;;7.08;93.13
12636;BME280;6383;50.830;7.210;2023-01-30T09:17:55;100969.19;;;7.14;93.68
12636;BME280;6383;50.830;7.210;2023-01-30T09:20:24;100966.50;;;7.19;92.84
12636;BME280;6383;50.830;7.210;2023-01-30T09:22:55;100973.81;;;7.23;93.52
12636;BME280;6383;50.830;7.210;2023-01-30T09:25:24;100986.53;;;7.28;92.60
12636;BME280;6383;50.830;7.210;2023-01-30T09:27:53;100980.31;;;7.32;93.57
12636;BME280;6383;50.830;7.210;2023-01-30T09:30:22;100975.47;;;7.39;93.62
12636;BME280;6383;50.830;7.210;2023-01-30T09:32:51;100969.22;;;7.44;92.39
12636;BME280;6383;50.830;7.210;2023-01-30T09:35:20;100950.28;;;7.49;92.09
12636;BME280;6383;50.830;7.210;2023-01-30T09:37:51;100953.28;;;7.53;91.89
12636;BME280;6383;50.830;7.210;2023-01-30T09:40:25;100951.66;;;7.57;91.57
12636;BME280;6383;50.830;7.210;2023-01-30T09:43:18;100959.75;;;7.62;90.39
12636;BME280;6383;50.830;7.210;2023-01-30T09:46:17;100962.75;;;7.65;89.93
12636;BME280;6383;50.830;7.210;2023-01-30T09:48:56;100957.06;;;7.67;89.64
12636;BME280;6383;50.830;7.210;2023-01-30T09:51:37;100955.72;;;7.69;88.40
12636;BME280;6383;50.830;7.210;2023-01-30T09:54:18;100958.41;;;7.74;86.37
12636;BME280;6383;50.830;7.210;2023-01-30T09:57:12;100954.34;;;7.82;86.10
12636;BME280;6383;50.830;7.210;2023-01-30T09:59:53;100955.13;;;7.88;84.85
12636;BME280;6383;50.830;7.210;2023-01-30T10:02:34;100951.63;;;7.92;84.61
12636;BME280;6383;50.830;7.210;2023-01-30T10:05:05;100965.97;;;7.98;83.93
12636;BME280;6383;50.830;7.210;2023-01-30T10:07:48;100954.03;;;8.04;83.94
12636;BME280;6383;50.830;7.210;2023-01-30T10:10:33;100971.38;;;8.08;82.61
12636;BME280;6383;50.830;7.210;2023-01-30T10:13:23;100973.28;;;8.12;82.10
12636;BME280;6383;50.830;7.210;2023-01-30T10:15:59;100968.13;;;8.16;80.25
12636;BME280;6383;50.830;7.210;2023-01-30T10:21:41;100967.28;;;8.21;80.16
12636;BME280;6383;50.830;7.210;2023-01-30T10:24:32;100991.97;;;8.24;80.00
12636;BME280;6383;50.830;7.210;2023-01-30T10:27:09;100980.03;;;8.25;79.79
12636;BME280;6383;50.830;7.210;2023-01-30T10:29:42;100978.41;;;8.29;78.63
12636;BME280;6383;50.830;7.210;2023-01-30T10:32:16;100974.59;;;8.30;78.09
12636;BME280;6383;50.830;7.210;2023-01-30T10:34:49;100993.03;;;8.33;77.67
12636;BME280;6383;50.830;7.210;2023-01-30T10:37:23;100976.50;;;8.35;77.23
12636;BME280;6383;50.830;7.210;2023-01-30T10:40:00;100980.56;;;8.37;76.60
12636;BME280;6383;50.830;7.210;2023-01-30T10:42:35;100980.28;;;8.39;76.22
12636;BME280;6383;50.830;7.210;2023-01-30T10:45:12;100982.47;;;8.42;75.69
12636;BME280;6383;50.830;7.210;2023-01-30T10:47:51;100991.13;;;8.44;74.90
12636;BME280;6383;50.830;7.210;2023-01-30T10:50:28;100980.81;;;8.46;75.36
12636;BME280;6383;50.830;7.210;2023-01-30T10:53:04;100996.81;;;8.47;74.68
12636;BME280;6383;50.830;7.210;2023-01-30T10:55:41;101003.84;;;8.48;74.20
12636;BME280;6383;50.830;7.210;2023-01-30T10:58:16;100993.00;;;8.48;74.01
12636;BME280;6383;50.830;7.210;2023-01-30T11:00:55;100994.63;;;8.49;73.04
12636;BME280;6383;50.830;7.210;2023-01-30T11:03:34;101004.66;;;8.49;72.42
12636;BME280;6383;50.830;7.210;2023-01-30T11:06:06;101004.66;;;8.49;73.02
12636;BME280;6383;50.830;7.210;2023-01-30T11:08:36;101009.00;;;8.50;72.62
12636;BME280;6383;50.830;7.210;2023-01-30T11:11:25;101011.72;;;8.50;72.44
12636;BME280;6383;50.830;7.210;2023-01-30T11:14:04;101016.59;;;8.48;72.51
12636;BME280;6383;50.830;7.210;2023-01-30T11:16:43;101005.22;;;8.46;72.71
12636;BME280;6383;50.830;7.210;2023-01-30T11:19:14;100992.78;;;8.45;71.39
12636;BME280;6383;50.830;7.210;2023-01-30T11:21:47;100988.44;;;8.44;72.30
12636;BME280;6383;50.830;7.210;2023-01-30T11:24:20;101000.38;;;8.43;71.73
12636;BME280;6383;50.830;7.210;2023-01-30T11:26:50;101000.63;;;8.36;72.41
12636;BME280;6383;50.830;7.210;2023-01-30T11:29:26;101000.91;;;8.35;72.31
12636;BME280;6383;50.830;7.210;2023-01-30T11:32:00;101003.06;;;8.33;71.77
12636;BME280;6383;50.830;7.210;2023-01-30T11:34:30;101008.75;;;8.31;72.05
12636;BME280;6383;50.830;7.210;2023-01-30T11:37:14;101013.38;;;8.31;72.00
12636;BME280;6383;50.830;7.210;2023-01-30T11:39:50;101005.53;;;8.29;71.77
12636;BME280;6383;50.830;7.210;2023-01-30T11:42:24;101009.31;;;8.28;71.36
12636;BME280;6383;50.830;7.210;2023-01-30T11:44:58;101002.25;;;8.27;70.94
12636;BME280;6383;50.830;7.210;2023-01-30T11:47:29;100996.03;;;8.27;71.50
12636;BME280;6383;50.830;7.210;2023-01-30T11:49:59;100986.25;;;8.26;71.53
12636;BME280;6383;50.830;7.210;2023-01-30T11:52:34;100983.28;;;8.27;70.67
12636;BME280;6383;50.830;7.210;2023-01-30T11:55:08;100992.50;;;8.26;71.12
12636;BME280;6383;50.830;7.210;2023-01-30T11:57:40;101000.09;;;8.24;70.53
12636;BME280;6383;50.830;7.210;2023-01-30T12:00:16;100990.34;;;8.23;70.55
12636;BME280;6383;50.830;7.210;2023-01-30T12:02:48;101004.97;;;8.22;70.32
12636;BME280;6383;50.830;7.210;2023-01-30T12:05:23;100995.75;;;8.23;71.15
12636;BME280;6383;50.830;7.210;2023-01-30T12:08:11;101000.38;;;8.23;70.96
12636;BME280;6383;50.830;7.210;2023-01-30T12:10:40;100993.84;;;8.24;71.25
12636;BME280;6383;50.830;7.210;2023-01-30T12:13:15;100992.78;;;8.25;70.59
12636;BME280;6383;50.830;7.210;2023-01-30T12:15:49;100995.22;;;8.26;71.72
12636;BME280;6383;50.830;7.210;2023-01-30T12:18:25;100987.88;;;8.27;71.38
12636;BME280;6383;50.830;7.210;2023-01-30T12:20:59;100996.03;;;8.27;71.13
12636;BME280;6383;50.830;7.210;2023-01-30T12:23:35;101014.16;;;8.31;70.17
12636;BME280;6383;50.830;7.210;2023-01-30T12:26:11;101004.16;;;8.32;69.80
12636;BME280;6383;50.830;7.210;2023-01-30T12:28:45;101008.75;;;8.31;69.57
12636;BME280;6383;50.830;7.210;2023-01-30T12:31:18;100996.84;;;8.27;70.14
12636;BME280;6383;50.830;7.210;2023-01-30T12:33:51;101005.25;;;8.26;69.79
12636;BME280;6383;50.830;7.210;2023-01-30T12:36:30;101006.34;;;8.25;70.04
12636;BME280;6383;50.830;7.210;2023-01-30T12:39:12;101007.41;;;8.24;69.21
12636;BME280;6383;50.830;7.210;2023-01-30T12:42:00;100989.53;;;8.23;69.90
12636;BME280;6383;50.830;7.210;2023-01-30T12:44:48;101009.31;;;8.23;68.76
12636;BME280;6383;50.830;7.210;2023-01-30T12:47:37;101018.25;;;8.24;69.13
12636;BME280;6383;50.830;7.210;2023-01-30T12:50:29;101012.84;;;8.24;69.53
12636;BME280;6383;50.830;7.210;2023-01-30T12:53:21;101009.31;;;8.23;69.33
12636;BME280;6383;50.830;7.210;2023-01-30T12:56:04;101016.63;;;8.23;69.62
12636;BME280;6383;50.830;7.210;2023-01-30T12:58:45;101023.41;;;8.20;69.54
12636;BME280;6383;50.830;7.210;2023-01-30T13:01:24;101028.03;;;8.20;68.75
12636;BME280;6383;50.830;7.210;2023-01-30T13:04:02;101020.97;;;8.19;68.95
12636;BME280;6383;50.830;7.210;2023-01-30T13:06:47;101031.81;;;8.19;69.31
12636;BME280;6383;50.830;7.210;2023-01-30T13:09:34;101037.25;;;8.19;68.81
12636;BME280;6383;50.830;7.210;2023-01-30T13:12:10;101025.56;;;8.18;68.47
12636;BME280;6383;50.830;7.210;2023-01-30T13:14:47;101047.53;;;8.22;68.24
12636;BME280;6383;50.830;7.210;2023-01-30T13:17:37;101044.84;;;8.22;68.15
12636;BME280;6383;50.830;7.210;2023-01-30T13:20:17;101038.31;;;8.23;68.39
12636;BME280;6383;50.830;7.210;2023-01-30T13:22:56;101040.78;;;8.24;68.14
12636;BME280;6383;50.830;7.210;2023-01-30T13:25:33;101041.31;;;8.26;69.08
12636;BME280;6383;50.830;7.210;2023-01-30T13:28:11;101044.56;;;8.28;68.19
12636;BME280;6383;50.830;7.210;2023-01-30T13:30:44;101036.97;;;8.30;68.40
12636;BME280;6383;50.830;7.210;2023-01-30T13:33:19;101048.09;;;8.34;68.04
12636;BME280;6383;50.830;7.210;2023-01-30T13:35:51;101053.25;;;8.35;67.88
12636;BME280;6383;50.830;7.210;2023-01-30T13:38:37;101059.22;;;8.37;67.95
12636;BME280;6383;50.830;7.210;2023-01-30T13:41:13;101052.72;;;8.38;67.09
12636;BME280;6383;50.830;7.210;2023-01-30T13:43:51;101070.59;;;8.39;67.58
12636;BME280;6383;50.830;7.210;2023-01-30T13:46:24;101070.59;;;8.39;67.01